createdAt,value
2022-11-03T00:00:24.945Z,5.92
2022-11-03T00:03:46.351Z,5.90
2022-11-03T00:07:08.137Z,5.87
2022-11-03T00:10:31.251Z,5.84
2022-11-03T00:13:52.987Z,5.83
2022-11-03T00:17:14.664Z,5.80
2022-11-03T00:20:35.891Z,5.76
2022-11-03T00:23:58.133Z,5.73
2022-11-03T00:27:21.290Z,5.70
2022-11-03T00:30:42.576Z,5.68
2022-11-03T00:34:04.433Z,5.67
2022-11-03T00:37:25.695Z,5.59
2022-11-03T00:40:47.081Z,5.58
2022-11-03T00:44:13.318Z,5.54
2022-11-03T00:47:34.903Z,5.48
2022-11-03T00:50:56.423Z,5.46
2022-11-03T00:54:17.889Z,5.41
2022-11-03T00:57:39.633Z,5.36
2022-11-03T01:01:04.364Z,5.31
2022-11-03T01:04:43.679Z,5.28
2022-11-03T01:08:05.483Z,5.26
2022-11-03T01:11:44.891Z,5.20
2022-11-03T01:15:06.821Z,5.17
2022-11-03T01:18:29.805Z,5.10
2022-11-03T01:21:51.270Z,5.05
2022-11-03T01:25:12.618Z,5.00
2022-11-03T01:28:35.064Z,4.86
2022-11-03T01:31:56.573Z,4.83
2022-11-03T01:35:19.228Z,4.84
2022-11-03T01:38:41.211Z,4.80
2022-11-03T01:42:02.972Z,4.75
2022-11-03T01:45:24.378Z,4.74
2022-11-03T01:48:49.990Z,4.72
2022-11-03T01:52:17.375Z,4.71
2022-11-03T01:55:40.748Z,4.69
2022-11-03T01:59:02.835Z,4.65
2022-11-03T02:02:24.351Z,4.62
2022-11-03T02:05:47.403Z,4.62
2022-11-03T02:09:11.887Z,4.61
2022-11-03T02:12:33.780Z,4.59
2022-11-03T02:15:59.277Z,4.56
2022-11-03T02:19:33.152Z,4.53
2022-11-03T02:23:21.411Z,4.46
2022-11-03T02:26:49.065Z,4.47
2022-11-03T02:30:11.364Z,4.44
2022-11-03T02:33:41.342Z,4.41
2022-11-03T02:37:09.174Z,4.37
2022-11-03T02:40:35.764Z,4.33
2022-11-03T02:43:59.491Z,4.29
2022-11-03T02:47:22.621Z,4.27
2022-11-03T02:50:44.561Z,4.27
2022-11-03T02:54:12.859Z,4.27
2022-11-03T02:57:37.413Z,4.23
2022-11-03T03:01:04.906Z,4.24
2022-11-03T03:04:29.279Z,4.23
2022-11-03T03:07:57.280Z,4.22
2022-11-03T03:11:37.459Z,4.26
2022-11-03T03:15:02.504Z,4.31
2022-11-03T03:18:30.371Z,4.24
2022-11-03T03:21:54.921Z,4.19
2022-11-03T03:25:22.952Z,4.16
2022-11-03T03:28:48.861Z,4.16
2022-11-03T03:32:11.749Z,4.14
2022-11-03T03:35:37.436Z,4.13
2022-11-03T03:39:03.316Z,4.15
2022-11-03T03:42:28.462Z,4.17
2022-11-03T03:45:53.025Z,4.24
2022-11-03T03:49:15.081Z,4.30
2022-11-03T03:52:38.621Z,4.31
2022-11-03T03:56:00.562Z,4.31
2022-11-03T03:59:21.843Z,4.33
2022-11-03T04:02:46.440Z,4.33
2022-11-03T04:06:07.731Z,4.34
2022-11-03T04:09:30.317Z,4.33
2022-11-03T04:13:10.009Z,4.35
2022-11-03T04:16:45.378Z,4.35
2022-11-03T04:20:30.866Z,4.36
2022-11-03T04:23:52.580Z,4.38
2022-11-03T04:27:28.890Z,4.38
2022-11-03T04:30:53.374Z,4.40
2022-11-03T04:34:17.709Z,4.39
2022-11-03T04:37:42.501Z,4.39
2022-11-03T04:41:15.781Z,4.31
2022-11-03T04:44:38.588Z,4.29
2022-11-03T04:48:02.970Z,4.29
2022-11-03T04:51:27.713Z,4.32
2022-11-03T04:54:54.378Z,4.30
2022-11-03T04:58:21.340Z,4.30
2022-11-03T05:01:46.229Z,4.31
2022-11-03T05:05:17.831Z,4.29
2022-11-03T05:08:39.524Z,4.28
2022-11-03T05:12:01.009Z,4.26
2022-11-03T05:15:32.618Z,4.26
2022-11-03T05:18:55.667Z,4.27
2022-11-03T05:22:20.919Z,4.24
2022-11-03T05:25:44.592Z,4.22
2022-11-03T05:29:14.503Z,4.19
2022-11-03T05:32:36.443Z,4.19
2022-11-03T05:36:03.263Z,4.20
2022-11-03T05:39:31.014Z,4.18
2022-11-03T05:42:55.310Z,4.19
2022-11-03T05:46:16.726Z,4.20
2022-11-03T05:49:37.993Z,4.17
2022-11-03T05:53:20.437Z,4.16
2022-11-03T05:56:41.961Z,4.18
2022-11-03T06:00:07.034Z,4.18
2022-11-03T06:03:37.099Z,4.20
2022-11-03T06:07:03.103Z,4.20
2022-11-03T06:10:32.228Z,4.14
2022-11-03T06:13:53.980Z,4.14
2022-11-03T06:17:24.542Z,4.13
2022-11-03T06:20:50.688Z,4.15
2022-11-03T06:24:15.174Z,4.18
2022-11-03T06:27:38.421Z,4.16
2022-11-03T06:31:00.498Z,4.15
2022-11-03T06:34:47.121Z,4.14
2022-11-03T06:38:17.155Z,4.15
2022-11-03T06:41:40.911Z,4.14
2022-11-03T06:45:20.324Z,4.17
2022-11-03T06:48:46.657Z,4.21
2022-11-03T06:52:23.741Z,4.24
2022-11-03T06:55:55.983Z,4.22
2022-11-03T06:59:26.302Z,4.18
2022-11-03T07:02:57.977Z,4.21
2022-11-03T07:06:30.966Z,4.29
2022-11-03T07:10:01.892Z,4.38
2022-11-03T07:13:31.155Z,4.43
2022-11-03T07:16:56.674Z,4.46
2022-11-03T07:20:22.251Z,4.49
2022-11-03T07:23:46.305Z,4.53
2022-11-03T07:27:22.777Z,4.55
2022-11-03T07:30:44.817Z,4.57
2022-11-03T07:34:15.413Z,4.62
2022-11-03T07:37:38.334Z,4.67
2022-11-03T07:45:40.125Z,4.85
2022-11-03T07:49:09.626Z,4.92
2022-11-03T07:52:31.035Z,5.02
2022-11-03T07:55:58.626Z,5.14
2022-11-03T07:59:30.901Z,5.24
2022-11-03T08:02:58.135Z,5.34
2022-11-03T08:10:31.961Z,5.56
2022-11-03T08:13:59.651Z,5.64
2022-11-03T08:17:21.295Z,5.75
2022-11-03T08:20:43.205Z,5.85
2022-11-03T08:24:05.202Z,5.94
2022-11-03T08:27:28.067Z,6.03
2022-11-03T08:30:51.120Z,6.12
2022-11-03T08:34:18.637Z,6.19
2022-11-03T08:37:45.746Z,6.29
2022-11-03T08:41:07.817Z,6.40
2022-11-03T08:44:35.927Z,6.49
2022-11-03T08:48:08.735Z,6.59
2022-11-03T08:51:43.028Z,6.70
2022-11-03T08:55:12.228Z,6.78
2022-11-03T08:59:14.183Z,6.89
2022-11-03T09:03:14.270Z,6.99
2022-11-03T09:06:37.697Z,7.09
2022-11-03T09:10:42.268Z,7.18
2022-11-03T09:14:57.045Z,7.29
2022-11-03T09:19:12.990Z,7.43
2022-11-03T10:29:06.069Z,10.06
2022-11-03T10:36:32.962Z,10.33
2022-11-03T10:44:46.729Z,10.56
2022-11-03T10:49:02.320Z,10.67
2022-11-03T11:01:35.376Z,11.05
2022-11-03T11:09:41.059Z,11.26
2022-11-03T11:13:41.887Z,11.37
2022-11-03T11:17:31.244Z,11.48
2022-11-03T11:21:36.519Z,11.56
2022-11-03T11:25:54.221Z,11.66
2022-11-03T11:39:13.255Z,11.94
2022-11-03T11:44:03.884Z,12.05
2022-11-03T11:48:34.976Z,12.14
2022-11-03T11:53:26.129Z,12.22
2022-11-03T11:57:52.029Z,12.31
2022-11-03T12:01:44.283Z,12.40
2022-11-03T12:06:11.428Z,12.47
2022-11-03T12:09:42.529Z,12.54
2022-11-03T12:13:43.960Z,12.61
2022-11-03T12:17:50.799Z,12.68
2022-11-03T12:22:24.347Z,12.75
2022-11-03T12:27:07.338Z,12.81
2022-11-03T12:30:40.165Z,12.87
2022-11-03T12:38:18.793Z,12.93
2022-11-03T12:47:51.857Z,12.98
2022-11-03T12:57:29.285Z,13.01
2022-11-03T13:12:32.140Z,13.05
2022-11-03T14:04:49.800Z,13.11
2022-11-03T14:09:23.047Z,13.11
2022-11-03T14:18:37.563Z,13.06
2022-11-03T14:22:59.034Z,13.06
2022-11-03T14:27:14.290Z,13.03
2022-11-03T14:45:38.438Z,12.87
2022-11-03T14:55:15.806Z,12.78
2022-11-03T15:12:12.515Z,12.50
2022-11-03T15:16:43.951Z,12.48
2022-11-03T15:20:39.966Z,12.43
2022-11-03T15:27:50.469Z,12.35
2022-11-03T15:31:19.807Z,12.30
2022-11-03T15:35:36.572Z,12.24
2022-11-03T15:39:10.765Z,12.16
2022-11-03T15:53:01.711Z,11.87
2022-11-03T15:57:33.924Z,11.78
2022-11-03T16:01:23.900Z,11.66
2022-11-03T16:05:25.142Z,11.60
2022-11-03T16:09:57.174Z,11.47
2022-11-03T16:13:42.264Z,11.39
2022-11-03T16:27:35.233Z,11.04
2022-11-03T16:32:08.606Z,10.94
2022-11-03T16:35:43.049Z,10.83
2022-11-03T16:39:15.252Z,10.81
2022-11-03T16:52:30.449Z,10.66
2022-11-03T16:55:54.177Z,10.63
2022-11-03T16:59:52.992Z,10.59
2022-11-03T17:04:10.897Z,10.56
2022-11-03T17:07:35.527Z,10.55
2022-11-03T17:12:00.445Z,10.55
2022-11-03T17:15:34.990Z,10.59
2022-11-03T17:19:04.175Z,10.58
2022-11-03T17:22:25.849Z,10.62
2022-11-03T17:26:06.057Z,10.63
2022-11-03T17:29:57.978Z,10.64
2022-11-03T17:33:31.467Z,10.67
2022-11-03T17:46:35.134Z,10.69
2022-11-03T18:01:24.170Z,10.68
2022-11-03T18:25:26.819Z,10.60
2022-11-03T18:28:49.279Z,10.57
2022-11-03T18:32:46.666Z,10.57
2022-11-03T18:36:17.053Z,10.54
2022-11-03T18:39:39.431Z,10.53
2022-11-03T18:43:18.381Z,10.51
2022-11-03T18:46:54.551Z,10.51
2022-11-03T18:54:47.758Z,10.45
2022-11-03T18:59:30.544Z,10.41
2022-11-03T19:02:52.373Z,10.37
2022-11-03T19:06:14.305Z,10.35
2022-11-03T19:09:36.110Z,10.32
2022-11-03T19:13:18.431Z,10.32
2022-11-03T19:17:21.333Z,10.31
2022-11-03T19:21:04.751Z,10.29
2022-11-03T19:24:30.537Z,10.28
2022-11-03T19:27:55.273Z,10.27
2022-11-03T19:31:48.749Z,10.27
2022-11-03T19:35:36.071Z,10.25
2022-11-03T19:39:23.433Z,10.25
2022-11-03T19:44:07.967Z,10.26
2022-11-03T19:48:24.064Z,10.24
2022-11-03T19:51:48.250Z,10.21
2022-11-03T19:55:19.086Z,10.20
2022-11-03T20:07:33.749Z,10.13
2022-11-03T20:15:37.946Z,10.14
2022-11-03T20:19:01.518Z,10.12
2022-11-03T20:22:31.140Z,10.08
2022-11-03T20:26:04.560Z,10.06
2022-11-03T20:29:29.560Z,10.06
2022-11-03T20:33:08.735Z,10.03
2022-11-03T20:37:08.615Z,10.02
2022-11-03T20:40:44.090Z,9.99
2022-11-03T20:45:09.698Z,9.97
2022-11-03T20:49:10.317Z,9.94
2022-11-03T20:52:33.443Z,9.91
2022-11-03T20:56:31.032Z,9.87
2022-11-03T21:00:07.526Z,9.85
2022-11-03T21:04:04.758Z,9.82
2022-11-03T21:08:09.032Z,9.79
2022-11-03T21:11:43.355Z,9.77
2022-11-03T21:15:32.106Z,9.73
2022-11-03T21:19:16.969Z,9.69
2022-11-03T21:22:52.441Z,9.65
2022-11-03T21:26:16.799Z,9.63
2022-11-03T21:30:18.633Z,9.58
2022-11-03T21:38:43.012Z,9.49
2022-11-03T21:42:30.213Z,9.46
2022-11-03T21:45:53.203Z,9.39
2022-11-03T21:49:32.992Z,9.37
2022-11-03T21:52:54.566Z,9.33
2022-11-03T21:56:19.959Z,9.28
2022-11-03T21:59:48.954Z,9.26
2022-11-03T22:03:11.980Z,9.21
2022-11-03T22:06:44.367Z,9.18
2022-11-03T22:10:14.870Z,9.15
2022-11-03T22:13:43.685Z,9.10
2022-11-03T22:17:12.355Z,9.07
2022-11-03T22:20:54.767Z,9.04
2022-11-03T22:24:32.920Z,9.02
2022-11-03T22:27:56.748Z,8.95
2022-11-03T22:31:35.530Z,8.87
2022-11-03T22:35:14.147Z,8.80
2022-11-03T22:38:54.193Z,8.78
2022-11-03T22:42:33.343Z,8.75
2022-11-03T22:45:55.864Z,8.77
2022-11-03T22:49:17.061Z,8.82
2022-11-03T22:52:38.152Z,8.84
2022-11-03T22:56:02.023Z,8.85
2022-11-03T22:59:23.753Z,8.82
2022-11-03T23:02:44.980Z,8.82
2022-11-03T23:06:08.589Z,8.83
2022-11-03T23:09:30.420Z,8.85
2022-11-03T23:12:53.360Z,8.86
2022-11-03T23:16:17.009Z,8.92
2022-11-03T23:19:55.982Z,8.92
2022-11-03T23:23:31.370Z,8.93
2022-11-03T23:26:53.198Z,8.91
2022-11-03T23:30:16.093Z,8.91
2022-11-03T23:33:37.525Z,8.92
2022-11-03T23:36:59.621Z,8.91
2022-11-03T23:40:21.592Z,8.93
2022-11-03T23:43:43.238Z,8.96
2022-11-03T23:47:23.498Z,8.94
2022-11-03T23:50:45.098Z,8.92
2022-11-03T23:54:08.693Z,8.92
2022-11-03T23:57:47.792Z,8.91
